Time;durP1;ratioP1;P1;durP2;ratioP2;P2;SDS_P1;SDS_P2;PMS_P1;PMS_P2;Temp;Humidity;BMP_temperature;BMP_pressure;BME280_temperature;BME280_humidity;BME280_pressure;Samples;Min_cycle;Max_cycle;Signal;HPM_P1;HPM_P2
2023/04/17 00:02:25;;;;;;;19.50;13.53;;;;;;;;;;4958437;28;20434;-80
2023/04/17 00:04:52;;;;;;;23.33;14.40;;;;;;;;;;4958476;28;20428;-80
2023/04/17 00:07:21;;;;;;;17.00;13.80;;;;;;;;;;4958649;28;20509;-80
2023/04/17 00:09:50;;;;;;;19.67;13.63;;;;;;;;;;4975669;28;20444;-80
2023/04/17 00:12:16;;;;;;;17.53;14.13;;;;;;;;;;4975991;28;20468;-80
2023/04/17 00:14:42;;;;;;;16.87;12.77;;;;;;;;;;4975647;28;20428;-82
2023/04/17 00:17:08;;;;;;;20.23;15.10;;;;;;;;;;4975871;28;20894;-81
2023/04/17 00:19:34;;;;;;;21.20;12.57;;;;;;;;;;4975789;28;20829;-80
2023/04/17 00:22:03;;;;;;;20.77;13.57;;;;;;;;;;4958684;28;20172;-80
2023/04/17 00:24:29;;;;;;;14.73;12.60;;;;;;;;;;4975335;28;20420;-80
2023/04/17 00:26:56;;;;;;;21.63;15.07;;;;;;;;;;4975612;28;20916;-81
2023/04/17 00:29:22;;;;;;;21.57;13.53;;;;;;;;;;4975508;28;20433;-80
2023/04/17 00:31:48;;;;;;;20.70;14.60;;;;;;;;;;4975512;28;20521;-80
2023/04/17 00:34:14;;;;;;;20.57;14.97;;;;;;;;;;4975646;28;20499;-80
2023/04/17 00:36:39;;;;;;;19.13;14.47;;;;;;;;;;4975487;28;21000;-80
2023/04/17 00:39:05;;;;;;;19.20;14.33;;;;;;;;;;4975007;28;20506;-79
2023/04/17 00:41:31;;;;;;;18.77;13.80;;;;;;;;;;4975476;28;20539;-81
2023/04/17 00:43:57;;;;;;;19.63;15.30;;;;;;;;;;4958020;28;20494;-81
2023/04/17 00:46:23;;;;;;;19.43;14.20;;;;;;;;;;4958118;28;20440;-81
2023/04/17 00:48:49;;;;;;;20.33;14.77;;;;;;;;;;4974778;28;20480;-82
2023/04/17 00:51:15;;;;;;;20.30;15.37;;;;;;;;;;4975487;28;20772;-82
2023/04/17 00:53:41;;;;;;;21.90;14.60;;;;;;;;;;4975055;28;20507;-82
2023/04/17 00:56:08;;;;;;;20.60;15.90;;;;;;;;;;4975373;28;20906;-82
2023/04/17 00:58:35;;;;;;;19.93;14.57;;;;;;;;;;4957946;28;20525;-82
2023/04/17 01:01:01;;;;;;;17.97;13.97;;;;;;;;;;4975154;28;20805;-82
2023/04/17 01:03:28;;;;;;;18.40;14.40;;;;;;;;;;4975214;28;20477;-82
2023/04/17 01:05:54;;;;;;;21.50;14.87;;;;;;;;;;4974798;28;20897;-82
2023/04/17 01:08:21;;;;;;;20.43;15.00;;;;;;;;;;4974627;28;20481;-82
2023/04/17 01:10:47;;;;;;;22.00;13.93;;;;;;;;;;4975061;28;20417;-82
2023/04/17 01:13:13;;;;;;;18.60;14.67;;;;;;;;;;4974955;28;20820;-81
2023/04/17 01:15:39;;;;;;;18.33;15.10;;;;;;;;;;4974625;28;20469;-81
2023/04/17 01:18:05;;;;;;;20.53;15.83;;;;;;;;;;4956904;28;20504;-82
2023/04/17 01:20:31;;;;;;;20.93;15.50;;;;;;;;;;4957084;28;20515;-82
2023/04/17 01:22:58;;;;;;;25.27;17.03;;;;;;;;;;4973839;28;20875;-82
2023/04/17 01:25:27;;;;;;;21.40;14.83;;;;;;;;;;4974608;28;20406;-80
2023/04/17 01:27:53;;;;;;;25.20;16.73;;;;;;;;;;4934838;28;20525;-80
2023/04/17 01:30:20;;;;;;;19.80;14.57;;;;;;;;;;4974793;28;20511;-80
2023/04/17 01:32:46;;;;;;;21.07;15.63;;;;;;;;;;4965122;28;20933;-80
2023/04/17 01:35:11;;;;;;;21.67;15.47;;;;;;;;;;4957527;28;20418;-80
2023/04/17 01:37:37;;;;;;;20.43;15.17;;;;;;;;;;4964807;28;20422;-80
2023/04/17 01:40:05;;;;;;;20.47;15.20;;;;;;;;;;4956366;28;20430;-79
2023/04/17 01:42:31;;;;;;;25.13;15.80;;;;;;;;;;4956868;28;20515;-80
2023/04/17 01:44:57;;;;;;;22.50;15.70;;;;;;;;;;4974047;28;20446;-80
2023/04/17 01:47:23;;;;;;;23.80;16.33;;;;;;;;;;4972847;28;20476;-80
2023/04/17 01:49:49;;;;;;;19.77;14.03;;;;;;;;;;4974174;28;20410;-80
2023/04/17 01:52:15;;;;;;;24.70;16.83;;;;;;;;;;4956618;28;20426;-78
2023/04/17 01:54:41;;;;;;;22.43;16.07;;;;;;;;;;4973718;28;20414;-79
2023/04/17 01:57:07;;;;;;;24.60;16.17;;;;;;;;;;4967629;28;20438;-80
2023/04/17 01:59:32;;;;;;;24.53;18.60;;;;;;;;;;4966677;28;20436;-79
2023/04/17 02:01:58;;;;;;;21.20;15.40;;;;;;;;;;4970491;28;20417;-80
2023/04/17 02:04:24;;;;;;;22.23;17.27;;;;;;;;;;4956557;28;20177;-79
2023/04/17 02:06:51;;;;;;;20.40;16.07;;;;;;;;;;4955428;28;20471;-79
2023/04/17 02:09:17;;;;;;;22.53;16.47;;;;;;;;;;4973326;28;20473;-79
2023/04/17 02:11:43;;;;;;;21.20;14.80;;;;;;;;;;4962472;28;21097;-79
2023/04/17 02:14:09;;;;;;;22.43;16.63;;;;;;;;;;4956646;28;20516;-79
2023/04/17 02:16:36;;;;;;;22.67;17.33;;;;;;;;;;4973947;28;20906;-79
2023/04/17 02:19:02;;;;;;;22.13;16.30;;;;;;;;;;4975940;28;20488;-79
2023/04/17 02:21:28;;;;;;;20.23;16.63;;;;;;;;;;4978043;28;20565;-78
2023/04/17 02:23:54;;;;;;;22.53;16.63;;;;;;;;;;4977714;28;20442;-80
2023/04/17 02:26:20;;;;;;;24.60;16.93;;;;;;;;;;4978053;28;20813;-80
2023/04/17 02:28:46;;;;;;;22.63;17.30;;;;;;;;;;4977948;28;20475;-80
2023/04/17 02:31:12;;;;;;;23.93;17.97;;;;;;;;;;4978060;28;20860;-83
2023/04/17 02:33:38;;;;;;;20.53;16.40;;;;;;;;;;4960572;28;20840;-81
2023/04/17 02:36:05;;;;;;;24.60;16.70;;;;;;;;;;4977824;28;20979;-80
2023/04/17 02:38:31;;;;;;;22.93;16.23;;;;;;;;;;4960165;28;20491;-79
2023/04/17 02:40:57;;;;;;;24.80;16.90;;;;;;;;;;4977576;28;20418;-79
2023/04/17 02:43:23;;;;;;;26.47;17.13;;;;;;;;;;4977687;28;20416;-80
2023/04/17 02:45:50;;;;;;;23.30;17.10;;;;;;;;;;4960215;28;20463;-80
2023/04/17 02:48:22;;;;;;;25.57;15.37;;;;;;;;;;4977609;28;20861;-80
2023/04/17 02:50:48;;;;;;;23.03;15.63;;;;;;;;;;4959930;28;20435;-80
2023/04/17 02:53:14;;;;;;;22.80;16.47;;;;;;;;;;4959369;28;20829;-82
2023/04/17 02:55:40;;;;;;;22.70;16.93;;;;;;;;;;4977416;28;20419;-79
2023/04/17 02:58:06;;;;;;;22.60;15.90;;;;;;;;;;4960135;28;20448;-79
2023/04/17 03:00:32;;;;;;;27.47;18.00;;;;;;;;;;4977490;28;20815;-79
2023/04/17 03:02:58;;;;;;;23.03;17.00;;;;;;;;;;4977461;28;20427;-78
2023/04/17 03:05:28;;;;;;;21.50;15.23;;;;;;;;;;4977448;28;20449;-78
2023/04/17 03:07:54;;;;;;;20.97;16.20;;;;;;;;;;4959485;28;20475;-79
2023/04/17 03:10:20;;;;;;;20.87;15.20;;;;;;;;;;4977266;28;20426;-79
2023/04/17 03:12:46;;;;;;;20.00;15.83;;;;;;;;;;4959895;28;20947;-78
2023/04/17 03:15:12;;;;;;;27.80;17.80;;;;;;;;;;4959629;28;20526;-79
2023/04/17 03:17:38;;;;;;;21.20;15.87;;;;;;;;;;4977196;28;20424;-78
2023/04/17 03:20:06;;;;;;;23.90;17.33;;;;;;;;;;4977122;28;20439;-79
2023/04/17 03:22:32;;;;;;;25.13;18.60;;;;;;;;;;4959527;28;20428;-79
2023/04/17 03:24:58;;;;;;;25.30;16.83;;;;;;;;;;4959569;28;20908;-79
2023/04/17 03:27:25;;;;;;;24.57;14.70;;;;;;;;;;4976796;28;20456;-79
2023/04/17 03:29:51;;;;;;;21.47;15.73;;;;;;;;;;4976894;28;20436;-78
2023/04/17 03:32:17;;;;;;;21.70;16.00;;;;;;;;;;4976874;28;20437;-79
2023/04/17 03:34:43;;;;;;;25.30;16.20;;;;;;;;;;4976824;28;20420;-78
2023/04/17 03:37:09;;;;;;;24.97;17.70;;;;;;;;;;4976701;28;20427;-79
2023/04/17 03:39:35;;;;;;;25.13;17.70;;;;;;;;;;4976381;28;20427;-78
2023/04/17 03:42:01;;;;;;;29.37;19.13;;;;;;;;;;4976723;28;20407;-79
2023/04/17 03:44:27;;;;;;;24.47;17.93;;;;;;;;;;4976584;28;20927;-77
2023/04/17 03:46:53;;;;;;;23.80;16.30;;;;;;;;;;4976551;28;20419;-77
2023/04/17 03:49:19;;;;;;;26.07;17.90;;;;;;;;;;4976469;28;20476;-79
2023/04/17 03:51:45;;;;;;;30.10;19.40;;;;;;;;;;4976497;28;20429;-79
2023/04/17 03:54:14;;;;;;;24.10;17.77;;;;;;;;;;4976008;28;20810;-79
2023/04/17 03:56:40;;;;;;;28.20;16.17;;;;;;;;;;4976337;28;20417;-80
2023/04/17 03:59:05;;;;;;;24.30;17.07;;;;;;;;;;4959076;28;20427;-79
2023/04/17 04:01:31;;;;;;;25.93;18.10;;;;;;;;;;4976376;28;20887;-79
2023/04/17 04:03:58;;;;;;;24.10;16.10;;;;;;;;;;4958961;28;20425;-79
2023/04/17 04:06:24;;;;;;;24.17;16.87;;;;;;;;;;4976231;28;20954;-79
2023/04/17 04:08:50;;;;;;;23.73;16.30;;;;;;;;;;4975497;28;20475;-79
2023/04/17 04:11:16;;;;;;;29.10;18.60;;;;;;;;;;4976133;28;20418;-79
2023/04/17 04:13:42;;;;;;;23.77;16.90;;;;;;;;;;4976206;28;20412;-79
2023/04/17 04:16:08;;;;;;;23.23;17.70;;;;;;;;;;4975926;28;20497;-82
2023/04/17 04:18:35;;;;;;;32.70;18.00;;;;;;;;;;4976008;28;20417;-79
2023/04/17 04:21:01;;;;;;;28.27;20.13;;;;;;;;;;4958579;28;20423;-79
2023/04/17 04:23:29;;;;;;;29.03;19.40;;;;;;;;;;4975587;28;20427;-79
2023/04/17 04:26:00;;;;;;;26.80;17.83;;;;;;;;;;4958570;28;20434;-79
2023/04/17 04:28:26;;;;;;;29.23;19.37;;;;;;;;;;4975875;28;20504;-79
2023/04/17 04:30:52;;;;;;;26.17;15.97;;;;;;;;;;4975815;28;20474;-79
2023/04/17 04:33:19;;;;;;;22.70;16.30;;;;;;;;;;4975743;28;20423;-78
2023/04/17 04:35:46;;;;;;;26.40;18.60;;;;;;;;;;4975662;28;20422;-79
2023/04/17 04:38:12;;;;;;;24.00;17.67;;;;;;;;;;4975327;28;20787;-78
2023/04/17 04:40:38;;;;;;;23.77;16.93;;;;;;;;;;4975417;28;20430;-79
2023/04/17 04:43:05;;;;;;;24.40;16.23;;;;;;;;;;4975142;28;20412;-78
2023/04/17 04:45:31;;;;;;;23.67;16.73;;;;;;;;;;4958126;28;20431;-78
2023/04/17 04:48:00;;;;;;;24.93;16.77;;;;;;;;;;4975236;28;20461;-79
2023/04/17 04:50:26;;;;;;;28.40;19.50;;;;;;;;;;4975456;28;20441;-79
2023/04/17 04:52:52;;;;;;;24.47;17.70;;;;;;;;;;4975004;28;20928;-79
2023/04/17 04:55:18;;;;;;;25.10;18.40;;;;;;;;;;4957399;28;20416;-79
2023/04/17 04:57:44;;;;;;;27.33;19.60;;;;;;;;;;4975101;28;20847;-79
2023/04/17 05:00:14;;;;;;;31.90;18.97;;;;;;;;;;4974873;28;20501;-79
2023/04/17 05:02:39;;;;;;;28.90;18.27;;;;;;;;;;4974980;28;20906;-79
2023/04/17 05:05:08;;;;;;;25.80;19.47;;;;;;;;;;4957658;28;20414;-79
2023/04/17 05:07:34;;;;;;;27.50;18.87;;;;;;;;;;4974467;28;20581;-79
2023/04/17 05:10:00;;;;;;;26.77;19.77;;;;;;;;;;4956498;28;20485;-80
2023/04/17 05:12:26;;;;;;;30.63;21.07;;;;;;;;;;4974935;28;20410;-79
2023/04/17 05:14:51;;;;;;;33.50;20.00;;;;;;;;;;4957412;28;20481;-79
2023/04/17 05:17:17;;;;;;;29.97;20.67;;;;;;;;;;4957610;28;20517;-79
2023/04/17 05:19:43;;;;;;;32.13;19.30;;;;;;;;;;4957357;28;20432;-79
2023/04/17 05:22:09;;;;;;;22.40;17.97;;;;;;;;;;4974799;28;20447;-79
2023/04/17 05:24:35;;;;;;;38.53;22.40;;;;;;;;;;4935247;28;20472;-80
2023/04/17 05:27:01;;;;;;;32.83;20.97;;;;;;;;;;4974542;28;20462;-79
2023/04/17 05:29:27;;;;;;;24.30;18.27;;;;;;;;;;4974305;28;20979;-80
2023/04/17 05:31:53;;;;;;;24.43;18.60;;;;;;;;;;4974711;28;20430;-79
2023/04/17 05:34:19;;;;;;;27.63;19.57;;;;;;;;;;4957319;28;20497;-79
2023/04/17 05:36:48;;;;;;;36.23;21.90;;;;;;;;;;4957302;28;20506;-79
2023/04/17 05:39:14;;;;;;;30.00;19.30;;;;;;;;;;4974187;28;20485;-80
2023/04/17 05:41:40;;;;;;;26.10;18.80;;;;;;;;;;4957101;28;20430;-79
2023/04/17 05:44:06;;;;;;;33.53;21.80;;;;;;;;;;4957228;28;20448;-79
2023/04/17 05:46:32;;;;;;;26.13;20.03;;;;;;;;;;4974416;28;20510;-79
2023/04/17 05:48:58;;;;;;;30.23;21.20;;;;;;;;;;4974408;28;20476;-79
2023/04/17 05:51:25;;;;;;;26.83;20.37;;;;;;;;;;4974301;28;20423;-79
2023/04/17 05:53:51;;;;;;;25.57;19.60;;;;;;;;;;4973148;28;20412;-79
2023/04/17 05:56:20;;;;;;;27.70;21.63;;;;;;;;;;4974149;28;20417;-79
2023/04/17 05:58:46;;;;;;;28.83;19.43;;;;;;;;;;4974279;28;20422;-79
2023/04/17 06:01:19;;;;;;;31.80;20.77;;;;;;;;;;4974350;28;20417;-80
2023/04/17 06:03:45;;;;;;;29.40;20.27;;;;;;;;;;4974222;28;20424;-78
2023/04/17 06:06:11;;;;;;;28.53;22.80;;;;;;;;;;4974244;28;20497;-79
2023/04/17 06:08:37;;;;;;;27.87;22.43;;;;;;;;;;4973825;28;20473;-78
2023/04/17 06:11:03;;;;;;;27.60;20.57;;;;;;;;;;4974241;28;20401;-78
2023/04/17 06:13:29;;;;;;;26.27;20.93;;;;;;;;;;4974176;28;20409;-78
2023/04/17 06:15:55;;;;;;;31.67;23.13;;;;;;;;;;4956771;28;21005;-79
2023/04/17 06:18:21;;;;;;;31.80;20.30;;;;;;;;;;4974060;28;20424;-78
2023/04/17 06:20:47;;;;;;;30.70;21.13;;;;;;;;;;4974112;28;20410;-78
2023/04/17 06:23:13;;;;;;;26.27;19.10;;;;;;;;;;4942116;28;20961;-79
2023/04/17 06:25:39;;;;;;;24.90;20.30;;;;;;;;;;4967714;28;20423;-78
2023/04/17 06:28:05;;;;;;;26.60;19.10;;;;;;;;;;4973930;28;20470;-79
2023/04/17 06:30:31;;;;;;;22.87;17.53;;;;;;;;;;4956066;28;20450;-79
2023/04/17 06:32:57;;;;;;;24.10;18.27;;;;;;;;;;4974007;28;20897;-76
2023/04/17 06:35:23;;;;;;;20.63;17.73;;;;;;;;;;4973929;28;20435;-77
2023/04/17 06:37:49;;;;;;;26.40;18.70;;;;;;;;;;4973721;28;20505;-76
2023/04/17 06:40:15;;;;;;;19.80;17.37;;;;;;;;;;4956570;28;20426;-77
2023/04/17 06:42:41;;;;;;;19.53;16.77;;;;;;;;;;4956490;28;20441;-77
2023/04/17 06:45:07;;;;;;;23.87;15.80;;;;;;;;;;4973850;28;20416;-77
2023/04/17 06:47:33;;;;;;;19.90;17.13;;;;;;;;;;4956202;28;20259;-77
2023/04/17 06:49:59;;;;;;;19.23;16.87;;;;;;;;;;4973758;28;20419;-77
2023/04/17 06:52:25;;;;;;;17.57;15.83;;;;;;;;;;4973527;28;20177;-77
2023/04/17 06:54:53;;;;;;;21.20;16.50;;;;;;;;;;4973711;28;20836;-78
2023/04/17 06:57:20;;;;;;;15.70;14.10;;;;;;;;;;4956450;28;20782;-78
2023/04/17 06:59:46;;;;;;;19.00;16.33;;;;;;;;;;4973745;28;20423;-78
2023/04/17 07:02:12;;;;;;;17.57;15.00;;;;;;;;;;4956278;28;20427;-78
2023/04/17 07:04:38;;;;;;;21.03;15.67;;;;;;;;;;4974817;28;20226;-78
2023/04/17 07:07:07;;;;;;;19.37;15.53;;;;;;;;;;4959625;28;20415;-78
2023/04/17 07:09:33;;;;;;;16.83;14.57;;;;;;;;;;4959780;28;20698;-78
2023/04/17 07:11:59;;;;;;;16.63;14.90;;;;;;;;;;4959911;28;20430;-78
2023/04/17 07:14:29;;;;;;;19.77;16.97;;;;;;;;;;4977190;28;20562;-78
2023/04/17 07:16:55;;;;;;;16.60;14.87;;;;;;;;;;4959777;28;20557;-78
2023/04/17 07:19:21;;;;;;;14.87;13.30;;;;;;;;;;4977162;28;20884;-78
2023/04/17 07:21:47;;;;;;;16.00;14.27;;;;;;;;;;4977110;28;20308;-79
2023/04/17 07:24:13;;;;;;;15.17;13.57;;;;;;;;;;4976567;28;20908;-77
2023/04/17 07:26:39;;;;;;;19.10;14.63;;;;;;;;;;4976952;28;20180;-77
2023/04/17 07:29:05;;;;;;;15.77;13.80;;;;;;;;;;4976704;28;20227;-77
2023/04/17 07:31:31;;;;;;;16.63;14.30;;;;;;;;;;4976735;28;20471;-77
2023/04/17 07:33:57;;;;;;;15.43;13.73;;;;;;;;;;4976784;28;20419;-78
2023/04/17 07:36:23;;;;;;;15.07;13.30;;;;;;;;;;4959450;28;20180;-78
2023/04/17 07:38:49;;;;;;;16.53;14.23;;;;;;;;;;4976341;28;20179;-77
2023/04/17 07:41:15;;;;;;;16.80;13.67;;;;;;;;;;4976862;28;20470;-77
2023/04/17 07:43:41;;;;;;;18.07;15.50;;;;;;;;;;4976623;28;20427;-78
2023/04/17 07:46:07;;;;;;;18.60;16.57;;;;;;;;;;4976662;28;20180;-78
2023/04/17 07:48:32;;;;;;;18.13;15.10;;;;;;;;;;4976653;28;20622;-77
2023/04/17 07:51:02;;;;;;;16.40;14.60;;;;;;;;;;4976568;28;20419;-77
2023/04/17 07:53:28;;;;;;;19.60;16.63;;;;;;;;;;4976218;28;20419;-78
2023/04/17 07:55:55;;;;;;;16.73;14.67;;;;;;;;;;4976538;28;20780;-78
2023/04/17 07:58:23;;;;;;;18.03;15.80;;;;;;;;;;4976386;28;20415;-77
2023/04/17 08:00:49;;;;;;;17.63;15.77;;;;;;;;;;4959130;28;20522;-78
2023/04/17 08:03:15;;;;;;;15.87;14.13;;;;;;;;;;4976401;28;20507;-79
2023/04/17 08:05:41;;;;;;;16.70;14.47;;;;;;;;;;4976349;28;20452;-78
2023/04/17 08:08:10;;;;;;;19.50;14.30;;;;;;;;;;4975898;28;20824;-78
2023/04/17 08:10:36;;;;;;;15.57;14.03;;;;;;;;;;4959184;28;20416;-81
2023/04/17 08:13:02;;;;;;;14.67;13.17;;;;;;;;;;4976197;28;20424;-82
2023/04/17 08:15:28;;;;;;;16.63;14.97;;;;;;;;;;4970882;28;20216;-84
2023/04/17 08:17:55;;;;;;;16.47;14.63;;;;;;;;;;4974762;28;20179;-86
2023/04/17 08:20:21;;;;;;;18.70;14.47;;;;;;;;;;4974801;28;20427;-82
2023/04/17 08:22:47;;;;;;;17.10;14.03;;;;;;;;;;4957398;28;20491;-84
2023/04/17 08:25:13;;;;;;;14.10;12.60;;;;;;;;;;4957745;28;20188;-86
2023/04/17 08:27:40;;;;;;;15.03;13.40;;;;;;;;;;4975207;28;20459;-84
2023/04/17 08:30:07;;;;;;;14.47;11.70;;;;;;;;;;4957666;28;20874;-85
2023/04/17 08:32:39;;;;;;;13.33;11.00;;;;;;;;;;4974782;28;20770;-82
2023/04/17 08:35:06;;;;;;;12.67;11.33;;;;;;;;;;4957392;28;20512;-84
2023/04/17 08:37:33;;;;;;;12.87;11.70;;;;;;;;;;4956925;28;20430;-83
2023/04/17 08:39:59;;;;;;;12.37;11.17;;;;;;;;;;4974508;28;20489;-84
2023/04/17 08:42:25;;;;;;;12.70;11.50;;;;;;;;;;4955453;28;20842;-82
2023/04/17 08:44:57;;;;;;;13.80;12.40;;;;;;;;;;4966312;28;20423;-85
2023/04/17 08:47:24;;;;;;;13.80;12.40;;;;;;;;;;4974351;28;20411;-84
2023/04/17 08:49:50;;;;;;;13.80;11.73;;;;;;;;;;4957095;28;20428;-83
2023/04/17 08:52:16;;;;;;;19.00;12.67;;;;;;;;;;4956691;28;20831;-85
2023/04/17 08:54:46;;;;;;;14.37;12.00;;;;;;;;;;4957006;28;20188;-85
2023/04/17 08:57:12;;;;;;;14.40;11.60;;;;;;;;;;4955952;28;20177;-84
2023/04/17 08:59:37;;;;;;;13.03;11.73;;;;;;;;;;4956391;28;20416;-84
2023/04/17 09:02:04;;;;;;;12.60;9.83;;;;;;;;;;4956929;28;20176;-83
2023/04/17 09:04:41;;;;;;;8.60;7.80;;;;;;;;;;4953114;29;20184;-84
2023/04/17 09:07:08;;;;;;;9.60;8.60;;;;;;;;;;4953288;29;20828;-84
2023/04/17 09:09:47;;;;;;;8.50;7.60;;;;;;;;;;4953518;29;20841;-84
2023/04/17 09:12:13;;;;;;;7.77;7.07;;;;;;;;;;4953484;29;20508;-83
2023/04/17 09:14:39;;;;;;;8.50;7.77;;;;;;;;;;4954571;29;20424;-84
2023/04/17 09:17:05;;;;;;;10.93;8.40;;;;;;;;;;4954772;29;20433;-84
2023/04/17 09:19:31;;;;;;;8.53;7.67;;;;;;;;;;4953508;29;20487;-83
2023/04/17 09:21:57;;;;;;;9.37;7.60;;;;;;;;;;4954167;29;20552;-80
2023/04/17 09:24:36;;;;;;;10.20;9.20;;;;;;;;;;4953438;29;20248;-83
2023/04/17 09:27:21;;;;;;;9.83;8.83;;;;;;;;;;4953099;28;20177;-83
2023/04/17 09:30:02;;;;;;;10.30;9.23;;;;;;;;;;4954549;29;20428;-85
2023/04/17 09:32:28;;;;;;;11.07;9.17;;;;;;;;;;4953003;29;20427;-85
2023/04/17 09:34:56;;;;;;;9.83;8.90;;;;;;;;;;4953111;29;20444;-81
2023/04/17 09:37:23;;;;;;;9.53;8.73;;;;;;;;;;4952736;29;20512;-83
2023/04/17 09:39:59;;;;;;;10.07;8.43;;;;;;;;;;4953018;29;20413;-83
2023/04/17 09:42:26;;;;;;;10.43;8.73;;;;;;;;;;4937248;29;20430;-83
2023/04/17 09:44:53;;;;;;;12.70;9.37;;;;;;;;;;4953140;29;20921;-83
2023/04/17 09:47:19;;;;;;;10.07;9.03;;;;;;;;;;4952506;29;20988;-83
2023/04/17 09:49:48;;;;;;;9.93;8.93;;;;;;;;;;4912800;28;20460;-86
2023/04/17 09:52:15;;;;;;;10.43;9.43;;;;;;;;;;4953811;28;20191;-85
2023/04/17 09:54:41;;;;;;;11.20;10.07;;;;;;;;;;4954030;28;20933;-85
2023/04/17 09:57:08;;;;;;;11.00;9.90;;;;;;;;;;4937546;29;20511;-88
2023/04/17 09:59:37;;;;;;;8.87;8.07;;;;;;;;;;4936873;29;20433;-85
2023/04/17 10:02:25;;;;;;;9.93;8.93;;;;;;;;;;4937074;29;20424;-86
2023/04/17 10:04:52;;;;;;;12.10;10.20;;;;;;;;;;4944810;28;20993;-80
2023/04/17 10:07:20;;;;;;;12.67;10.73;;;;;;;;;;4972744;28;20923;-89
2023/04/17 10:09:46;;;;;;;10.33;9.23;;;;;;;;;;4955939;28;20428;-81
2023/04/17 10:12:17;;;;;;;10.83;9.80;;;;;;;;;;4955532;28;20478;-81
2023/04/17 10:14:45;;;;;;;10.60;9.60;;;;;;;;;;4955286;28;20435;-81
2023/04/17 10:17:24;;;;;;;11.10;10.00;;;;;;;;;;4973293;28;20403;-81
2023/04/17 10:19:50;;;;;;;9.90;8.93;;;;;;;;;;4973042;28;20442;-81
2023/04/17 10:22:19;;;;;;;10.80;9.70;;;;;;;;;;4973183;28;20412;-83
2023/04/17 10:25:16;;;;;;;8.57;7.77;;;;;;;;;;4973003;28;20442;-82
2023/04/17 10:27:45;;;;;;;8.23;7.40;;;;;;;;;;4949629;28;20430;-87
2023/04/17 10:30:11;;;;;;;10.20;9.23;;;;;;;;;;4975104;28;20426;-84
2023/04/17 10:32:38;;;;;;;8.73;7.37;;;;;;;;;;4974897;28;20412;-85
2023/04/17 10:35:16;;;;;;;8.60;7.70;;;;;;;;;;4991725;28;20419;-84
2023/04/17 10:37:49;;;;;;;10.97;9.27;;;;;;;;;;4973774;28;20561;-79
2023/04/17 10:40:21;;;;;;;10.00;8.30;;;;;;;;;;4993608;28;20415;-85
2023/04/17 10:43:06;;;;;;;11.60;9.67;;;;;;;;;;4971666;28;20434;-80
2023/04/17 10:45:52;;;;;;;11.90;10.17;;;23.70;1.00;;;;;;4975984;28;20441;-80
2023/04/17 10:48:37;;;;;;;12.30;10.80;;;23.20;1.00;;;;;;4954296;28;20416;-84
2023/04/17 10:51:38;;;;;;;9.30;8.27;;;22.30;1.00;;;;;;4924039;28;20423;-87
2023/04/17 10:54:09;;;;;;;12.27;9.57;;;22.30;1.00;;;;;;4975554;28;20416;-83
2023/04/17 10:56:47;;;;;;;13.10;8.13;;;22.50;1.00;;;;;;4958385;28;20428;-88
2023/04/17 10:59:15;;;;;;;9.83;8.93;;;;;;;;;;4965713;28;20481;-82
2023/04/17 11:01:49;;;;;;;8.73;7.63;;;;;;;;;;4955520;28;20462;-81
2023/04/17 11:04:19;;;;;;;9.00;7.10;;;;;;;;;;4974791;28;21001;-85
2023/04/17 11:06:46;;;;;;;10.97;8.57;;;;;;;;;;4974633;28;20408;-85
2023/04/17 11:09:12;;;;;;;9.20;8.30;;;;;;;;;;4974811;28;20419;-85
2023/04/17 11:11:39;;;;;;;9.07;7.07;;;;;;;;;;4975816;28;20491;-87
2023/04/17 11:14:07;;;;;;;7.70;7.00;;;;;;;;;;4975331;28;20454;-87
2023/04/17 11:16:33;;;;;;;8.47;6.17;;;;;;;;;;4975681;28;20461;-83
2023/04/17 11:18:59;;;;;;;7.00;5.80;;;;;;;;;;4975862;28;20463;-85
2023/04/17 11:21:26;;;;;;;7.97;5.00;;;;;;;;;;4975385;28;20175;-86
2023/04/17 11:23:52;;;;;;;6.70;5.87;;;;;;;;;;4974561;28;20555;-84
2023/04/17 11:26:19;;;;;;;7.00;5.33;;;;;;;;;;4975976;28;20407;-79
2023/04/17 11:28:45;;;;;;;10.03;5.30;;;;;;;;;;4958427;28;20176;-84
2023/04/17 11:31:12;;;;;;;8.60;5.97;;;;;;;;;;4974425;28;22350;-81
2023/04/17 11:33:38;;;;;;;7.37;5.30;;;;;;;;;;4975736;28;20420;-86
2023/04/17 11:36:05;;;;;;;5.27;4.73;;;;;;;;;;4975575;28;20426;-85
2023/04/17 11:38:31;;;;;;;5.43;4.93;;;;;;;;;;4975252;28;20663;-83
2023/04/17 11:41:01;;;;;;;5.70;3.83;;;;;;;;;;4975701;28;20412;-82
2023/04/17 11:43:28;;;;;;;6.40;5.10;;;;;;;;;;4975775;28;20772;-81
2023/04/17 11:45:55;;;;;;;7.03;4.27;;;;;;;;;;4975432;28;20507;-83
2023/04/17 11:48:22;;;;;;;7.87;4.90;;;;;;;;;;4975575;28;20491;-83
2023/04/17 11:50:48;;;;;;;5.43;4.30;;;;;;;;;;4974580;28;20450;-84
2023/04/17 11:53:17;;;;;;;5.20;4.60;;;;;;;;;;4975073;28;20448;-83
2023/04/17 11:56:09;;;;;;;7.20;4.93;;;;;;;;;;4957816;28;20219;-85
2023/04/17 11:58:44;;;;;;;6.27;4.53;;;;;;;;;;4975295;28;20517;-84
2023/04/17 12:01:11;;;;;;;6.73;5.97;;;;;;;;;;4958236;28;20430;-85
2023/04/17 12:03:37;;;;;;;7.27;6.00;;;;;;;;;;4958251;28;20861;-83
2023/04/17 12:06:05;;;;;;;6.00;5.13;;;;;;;;;;4975214;28;20946;-85
2023/04/17 12:08:40;;;;;;;5.83;5.23;;;;;;;;;;4974930;28;20412;-87
2023/04/17 12:11:06;;;;;;;7.40;4.93;;;;;;;;;;4975304;28;20431;-84
2023/04/17 12:13:34;;;;;;;7.40;5.47;;;;;;;;;;4957668;28;20427;-82
2023/04/17 12:16:03;;;;;;;14.43;6.10;;;;;;;;;;4974798;28;20220;-84
2023/04/17 12:18:29;;;;;;;6.17;5.17;;;;;;;;;;4975110;28;20475;-84
2023/04/17 12:20:55;;;;;;;8.10;5.50;;;;;;;;;;4957745;28;20772;-86
2023/04/17 12:23:21;;;;;;;6.63;5.60;;;;;;;;;;4975033;28;20671;-83
2023/04/17 12:25:47;;;;;;;7.20;5.13;;;;;;;;;;4957610;28;20443;-84
2023/04/17 12:28:13;;;;;;;6.07;4.70;;;;;;;;;;4957455;28;20184;-84
2023/04/17 12:30:39;;;;;;;13.90;6.80;;;;;;;;;;4973762;28;20180;-79
2023/04/17 12:33:06;;;;;;;7.20;5.37;;;;;;;;;;4974775;28;20227;-86
2023/04/17 12:35:32;;;;;;;6.00;5.03;;;;;;;;;;4974670;28;20411;-85
2023/04/17 12:37:58;;;;;;;6.50;5.00;;;;;;;;;;4974255;28;20513;-82
2023/04/17 12:40:24;;;;;;;6.13;5.53;;;;;;;;;;4973447;28;20936;-84
2023/04/17 12:42:50;;;;;;;7.60;5.57;;;;;;;;;;4973538;28;20415;-85
2023/04/17 12:45:17;;;;;;;8.57;5.30;;;;;;;;;;4974469;28;20416;-85
2023/04/17 12:47:43;;;;;;;7.30;5.33;;;;;;;;;;4973395;28;20779;-84
2023/04/17 12:50:11;;;;;;;5.93;4.90;;;;;;;;;;4974550;28;20420;-83
2023/04/17 12:52:38;;;;;;;7.90;5.90;;;;;;;;;;4973611;28;20467;-82
2023/04/17 12:55:06;;;;;;;6.20;5.60;;;;;;;;;;4974060;28;20478;-81
2023/04/17 12:57:32;;;;;;;5.70;4.40;;;;;;;;;;4973703;28;20460;-86
2023/04/17 12:59:58;;;;;;;6.00;5.40;;;;;;;;;;4974430;28;20454;-84
2023/04/17 13:02:24;;;;;;;5.87;5.07;;;;;;;;;;4966356;28;20272;-81
2023/04/17 13:04:50;;;;;;;6.10;5.60;;;;;;;;;;4961238;28;20184;-84
2023/04/17 13:07:17;;;;;;;8.03;6.80;;;;;;;;;;4962402;28;20420;-83
2023/04/17 13:09:43;;;;;;;6.90;5.80;;;;;;;;;;4946725;28;20498;-80
2023/04/17 13:12:09;;;;;;;5.57;5.03;;;;;;;;;;4954606;28;20416;-82
2023/04/17 13:14:36;;;;;;;10.20;5.27;;;;;;;;;;4943373;28;20454;-85
2023/04/17 13:17:02;;;;;;;6.27;5.20;;;;;;;;;;4973851;28;20424;-84
2023/04/17 13:19:28;;;;;;;6.37;5.77;;;;;;;;;;4974187;28;21007;-83
2023/04/17 13:21:54;;;;;;;9.73;5.80;;;;;;;;;;4972233;28;20176;-86
2023/04/17 13:24:20;;;;;;;7.40;5.33;;;;;;;;;;4973736;28;20177;-84
2023/04/17 13:26:46;;;;;;;6.30;4.80;;;;;;;;;;4973729;28;20530;-84
2023/04/17 13:29:12;;;;;;;5.53;5.00;;;;;;;;;;4973705;28;20187;-80
2023/04/17 13:31:38;;;;;;;6.43;4.93;;;;;;;;;;4973569;28;20169;-84
2023/04/17 13:34:04;;;;;;;5.27;4.57;;;;;;;;;;4972285;28;20432;-80
2023/04/17 13:36:30;;;;;;;5.30;4.70;;;;;;;;;;4973252;28;20223;-79
2023/04/17 13:38:59;;;;;;;6.47;4.70;;;;;;;;;;4972237;28;20479;-82
2023/04/17 13:41:31;;;;;;;6.27;4.00;;;;;;;;;;4972163;28;20422;-80
2023/04/17 13:43:57;;;;;;;7.00;4.43;;;;;;;;;;4972208;28;20785;-82
2023/04/17 13:46:23;;;;;;;6.90;3.90;;;;;;;;;;4973519;28;20411;-82
2023/04/17 13:48:50;;;;;;;6.00;4.17;;;;;;;;;;4973357;28;20410;-81
2023/04/17 13:51:16;;;;;;;6.07;3.37;;;;;;;;;;4971729;28;20420;-79
2023/04/17 13:53:41;;;;;;;6.30;3.10;;;;;;;;;;4973341;28;20812;-79
2023/04/17 13:56:08;;;;;;;4.77;3.70;;;;;;;;;;4973342;28;20184;-80
2023/04/17 13:58:34;;;;;;;5.00;3.43;;;;;;;;;;4973127;28;20477;-82
2023/04/17 14:01:00;;;;;;;4.47;2.87;;;;;;;;;;4965681;28;20428;-82
2023/04/17 14:03:26;;;;;;;4.83;2.87;;;;;;;;;;4972936;28;20431;-78
2023/04/17 14:05:52;;;;;;;4.60;2.90;;;;;;;;;;4972953;28;20314;-81
2023/04/17 14:08:18;;;;;;;5.40;3.40;;;;;;;;;;4973063;28;20477;-82
2023/04/17 14:10:44;;;;;;;3.20;2.90;;;;;;;;;;4973135;28;21041;-80
2023/04/17 14:13:10;;;;;;;3.13;2.17;;;;;;;;;;4973046;28;20257;-82
2023/04/17 14:15:36;;;;;;;5.70;2.83;;;;;;;;;;4972256;28;20237;-81
2023/04/17 14:18:02;;;;;;;4.30;2.90;;;;;;;;;;4972964;28;20460;-80
2023/04/17 14:20:28;;;;;;;4.90;2.67;;;;;;;;;;4969722;28;20449;-80
2023/04/17 14:22:54;;;;;;;3.97;1.90;;;;;;;;;;4961973;28;20499;-78
2023/04/17 14:25:20;;;;;;;4.73;2.37;;;;;;;;;;4952526;29;20181;-79